createdAt,value
2023-04-20T00:01:14.907Z,101153.88
2023-04-20T00:03:42.782Z,101151.41
2023-04-20T00:06:12.170Z,101160.88
2023-04-20T00:08:39.955Z,101146.63
2023-04-20T00:11:07.792Z,101139.94
2023-04-20T00:13:35.746Z,101140.09
2023-04-20T00:16:03.758Z,101129.78
2023-04-20T00:18:31.602Z,101131.50
2023-04-20T00:20:59.658Z,101129.31
2023-04-20T00:23:28.749Z,101122.66
2023-04-20T00:25:56.680Z,101115.03
2023-04-20T00:28:24.700Z,101116.75
2023-04-20T00:30:52.619Z,101113.06
2023-04-20T00:33:20.481Z,101107.16
2023-04-20T00:35:48.310Z,101106.91
2023-04-20T00:38:16.922Z,101098.31
2023-04-20T00:40:52.862Z,101089.91
2023-04-20T00:43:22.040Z,101081.56
2023-04-20T00:45:52.706Z,101085.75
2023-04-20T00:48:22.013Z,101079.56
2023-04-20T00:50:50.787Z,101076.28
2023-04-20T00:53:19.269Z,101069.75
2023-04-20T00:55:48.948Z,101065.53
2023-04-20T00:58:16.820Z,101058.78
2023-04-20T01:00:44.707Z,101054.63
2023-04-20T01:03:12.980Z,101051.22
2023-04-20T01:05:41.254Z,101045.09
2023-04-20T01:08:09.115Z,101052.84
2023-04-20T01:10:36.995Z,101051.59
2023-04-20T01:13:09.347Z,101045.63
2023-04-20T01:15:37.182Z,101043.16
2023-04-20T01:18:06.646Z,101042.53
2023-04-20T01:20:34.634Z,101035.09
2023-04-20T01:23:03.931Z,101027.59
2023-04-20T01:25:31.792Z,101025.31
2023-04-20T01:27:59.610Z,101013.16
2023-04-20T01:30:27.554Z,101016.66
2023-04-20T01:32:55.326Z,101021.44
2023-04-20T01:35:23.976Z,101014.75
2023-04-20T01:37:51.927Z,101010.41
2023-04-20T01:40:21.169Z,101009.69
2023-04-20T01:42:49.138Z,101002.47
2023-04-20T01:45:16.980Z,100999.88
2023-04-20T01:47:44.918Z,100997.53
2023-04-20T01:50:12.721Z,100999.06
2023-04-20T01:52:40.562Z,100990.91
2023-04-20T01:55:08.902Z,100985.88
2023-04-20T01:57:38.161Z,100972.41
2023-04-20T02:00:08.894Z,100971.78
2023-04-20T02:02:42.300Z,100984.66
2023-04-20T02:05:10.567Z,100990.78
2023-04-20T02:07:38.294Z,100985.44
2023-04-20T02:10:08.758Z,100967.13
2023-04-20T02:12:38.551Z,100976.06
2023-04-20T02:15:09.235Z,100979.19
2023-04-20T02:17:38.084Z,100966.25
2023-04-20T02:20:11.069Z,100961.09
2023-04-20T02:22:39.052Z,100959.94
2023-04-20T02:25:09.689Z,100961.94
2023-04-20T02:27:39.570Z,100959.47
2023-04-20T02:30:09.383Z,100954.53
2023-04-20T02:32:37.409Z,100963.06
2023-04-20T02:35:06.417Z,100968.91
2023-04-20T02:37:34.342Z,100970.53
2023-04-20T02:40:02.368Z,100969.56
2023-04-20T02:42:30.870Z,100960.22
2023-04-20T02:45:02.506Z,100974.50
2023-04-20T02:47:31.690Z,100965.53
2023-04-20T02:49:59.666Z,100953.03
2023-04-20T02:52:27.483Z,100958.38
2023-04-20T02:54:58.147Z,100962.38
2023-04-20T02:57:26.563Z,100961.09
2023-04-20T02:59:59.297Z,100947.97
2023-04-20T03:02:39.998Z,100951.38
2023-04-20T03:05:09.564Z,100958.94
2023-04-20T03:07:44.467Z,100945.53
2023-04-20T03:10:13.896Z,100957.47
2023-04-20T03:12:51.335Z,100946.06
2023-04-20T03:15:48.201Z,100947.16
2023-04-20T03:18:40.361Z,100956.75
2023-04-20T03:21:08.468Z,100949.59
2023-04-20T03:23:36.363Z,100944.84
2023-04-20T03:26:05.836Z,100943.75
2023-04-20T03:28:43.692Z,100949.06
2023-04-20T03:31:14.984Z,100939.66
2023-04-20T03:33:44.834Z,100933.03
2023-04-20T03:36:12.940Z,100938.47
2023-04-20T03:38:40.715Z,100939.00
2023-04-20T03:41:08.643Z,100935.72
2023-04-20T03:43:36.561Z,100929.19
2023-04-20T03:46:04.582Z,100924.63
2023-04-20T03:48:33.163Z,100921.75
2023-04-20T03:51:02.379Z,100930.56
2023-04-20T03:53:30.341Z,100928.06
2023-04-20T03:55:58.578Z,100921.50
2023-04-20T03:58:27.956Z,100932.97
2023-04-20T04:01:13.420Z,100929.78
2023-04-20T04:03:45.788Z,100935.34
2023-04-20T04:06:15.669Z,100921.28
2023-04-20T04:08:46.602Z,100916.00
2023-04-20T04:11:14.540Z,100920.50
2023-04-20T04:13:42.802Z,100913.06
2023-04-20T04:16:29.669Z,100921.34
2023-04-20T04:18:57.717Z,100912.97
2023-04-20T04:21:28.263Z,100917.63
2023-04-20T04:24:01.947Z,100916.47
2023-04-20T04:27:07.465Z,100916.53
2023-04-20T04:30:35.214Z,100913.22
2023-04-20T04:33:04.852Z,100904.47
2023-04-20T04:35:35.461Z,100912.09
2023-04-20T04:38:05.129Z,100915.16
2023-04-20T04:40:33.643Z,100908.22
2023-04-20T04:43:03.939Z,100910.06
2023-04-20T04:45:32.206Z,100914.13
2023-04-20T04:48:00.076Z,100923.03
2023-04-20T04:50:28.074Z,100920.94
2023-04-20T04:52:55.858Z,100922.66
2023-04-20T04:55:25.152Z,100927.31
2023-04-20T04:57:53.030Z,100934.91
2023-04-20T05:00:24.991Z,100932.97
2023-04-20T05:03:12.206Z,100941.16
2023-04-20T05:05:40.123Z,100934.91
2023-04-20T05:11:41.234Z,100927.31
2023-04-20T05:14:09.015Z,100924.63
2023-04-20T05:16:36.902Z,100920.16
2023-04-20T05:19:04.825Z,100925.81
2023-04-20T05:21:33.019Z,100923.56
2023-04-20T05:24:00.860Z,100918.50
2023-04-20T05:26:28.686Z,100923.91
2023-04-20T05:28:58.040Z,100916.88
2023-04-20T05:31:26.461Z,100923.00
2023-04-20T05:33:54.393Z,100933.19
2023-04-20T05:36:22.357Z,100937.31
2023-04-20T05:38:50.161Z,100934.00
2023-04-20T05:41:17.878Z,100927.78
2023-04-20T05:43:45.647Z,100932.13
2023-04-20T05:46:14.913Z,100937.94
2023-04-20T05:48:42.916Z,100939.16
2023-04-20T05:51:10.781Z,100940.06
2023-04-20T05:53:38.818Z,100938.28
2023-04-20T05:56:07.656Z,100941.13
2023-04-20T05:58:37.459Z,100944.47
2023-04-20T06:01:05.624Z,100937.47
2023-04-20T06:03:35.022Z,100942.56
2023-04-20T06:06:03.259Z,100936.97
2023-04-20T06:08:31.114Z,100947.09
2023-04-20T06:10:59.064Z,100943.56
2023-04-20T06:13:26.987Z,100946.84
2023-04-20T06:15:54.874Z,100944.19
2023-04-20T06:18:22.882Z,100944.94
2023-04-20T06:20:52.102Z,100945.78
2023-04-20T06:23:19.859Z,100942.34
2023-04-20T06:25:47.660Z,100942.69
2023-04-20T06:28:15.800Z,100938.78
2023-04-20T06:30:43.598Z,100937.91
2023-04-20T06:33:16.918Z,100938.91
2023-04-20T06:35:44.922Z,100939.78
2023-04-20T06:38:14.065Z,100938.34
2023-04-20T06:40:41.947Z,100941.13
2023-04-20T06:43:09.706Z,100930.84
2023-04-20T06:45:37.727Z,100936.91
2023-04-20T06:48:09.956Z,100931.56
2023-04-20T06:50:42.233Z,100941.69
2023-04-20T06:53:10.105Z,100939.78
2023-04-20T06:55:39.166Z,100942.44
2023-04-20T06:58:07.010Z,100932.59
2023-04-20T07:00:35.531Z,100940.31
2023-04-20T07:03:03.370Z,100946.03
2023-04-20T07:05:31.180Z,100938.16
2023-04-20T07:07:59.062Z,100930.09
2023-04-20T07:10:27.033Z,100930.09
2023-04-20T07:12:56.248Z,100929.56
2023-04-20T07:15:24.582Z,100929.72
2023-04-20T07:17:52.447Z,100928.59
2023-04-20T07:20:20.189Z,100923.56
2023-04-20T07:22:48.111Z,100929.03
2023-04-20T07:25:17.641Z,100932.88
2023-04-20T07:27:45.634Z,100926.50
2023-04-20T07:30:15.642Z,100928.22
2023-04-20T07:32:43.593Z,100921.66
2023-04-20T07:35:11.663Z,100920.78
2023-04-20T07:37:40.564Z,100933.00
2023-04-20T07:40:10.470Z,100924.69
2023-04-20T07:42:38.750Z,100920.25
2023-04-20T07:45:08.466Z,100932.19
2023-04-20T07:47:38.301Z,100929.59
2023-04-20T07:50:08.380Z,100929.84
2023-04-20T07:52:36.582Z,100927.69
2023-04-20T07:55:06.585Z,100934.25
2023-04-20T07:57:35.838Z,100927.34
2023-04-20T08:00:08.452Z,100934.38
2023-04-20T08:02:42.238Z,100934.53
2023-04-20T08:05:11.098Z,100929.97
2023-04-20T08:07:39.791Z,100934.25
2023-04-20T08:10:10.489Z,100931.22
2023-04-20T08:12:39.182Z,100932.25
2023-04-20T08:15:09.241Z,100928.34
2023-04-20T08:17:37.180Z,100922.16
2023-04-20T08:20:08.272Z,100927.56
2023-04-20T08:22:36.421Z,100928.84
2023-04-20T08:25:05.099Z,100917.25
2023-04-20T08:27:33.193Z,100913.59
2023-04-20T08:30:01.934Z,100915.44
2023-04-20T08:32:29.930Z,100917.28
2023-04-20T08:34:58.193Z,100904.50
2023-04-20T08:37:28.810Z,100903.44
2023-04-20T08:39:57.901Z,100897.97
2023-04-20T08:42:25.911Z,100898.84
2023-04-20T08:44:53.785Z,100895.41
2023-04-20T08:47:21.940Z,100899.38
2023-04-20T08:49:54.812Z,100894.75
2023-04-20T08:52:22.647Z,100890.75
2023-04-20T08:54:56.803Z,100889.59
2023-04-20T08:57:26.039Z,100908.19
2023-04-20T08:59:53.917Z,100901.75
2023-04-20T09:02:22.849Z,100905.97
2023-04-20T09:05:01.583Z,100893.19
2023-04-20T09:07:29.493Z,100892.25
2023-04-20T09:10:01.194Z,100900.13
2023-04-20T09:12:29.430Z,100899.22
2023-04-20T09:14:57.244Z,100891.78
2023-04-20T09:17:34.346Z,100887.00
2023-04-20T09:20:04.006Z,100890.66
2023-04-20T09:22:33.399Z,100890.91
2023-04-20T09:25:13.908Z,100888.28
2023-04-20T09:27:41.888Z,100885.56
2023-04-20T09:30:11.772Z,100889.28
2023-04-20T09:32:40.026Z,100880.03
2023-04-20T09:35:09.253Z,100890.78
2023-04-20T09:37:47.920Z,100886.88
2023-04-20T09:40:19.756Z,100882.84
2023-04-20T09:42:49.948Z,100877.00
2023-04-20T09:45:18.847Z,100882.09
2023-04-20T09:47:49.953Z,100873.63
2023-04-20T09:50:26.701Z,100875.72
2023-04-20T09:52:58.363Z,100873.25
2023-04-20T09:55:30.311Z,100881.94
2023-04-20T09:57:59.201Z,100881.47
2023-04-20T10:00:27.364Z,100877.31
2023-04-20T10:02:55.595Z,100879.00
2023-04-20T10:05:34.600Z,100876.28
2023-04-20T10:08:03.653Z,100883.03
2023-04-20T10:10:45.380Z,100881.03
2023-04-20T10:13:19.039Z,100874.78
2023-04-20T10:15:47.159Z,100882.00
2023-04-20T10:18:18.420Z,100875.00
2023-04-20T10:20:47.337Z,100877.22
2023-04-20T10:23:16.362Z,100881.50
2023-04-20T10:25:56.571Z,100875.44
2023-04-20T10:28:24.916Z,100882.75
2023-04-20T10:30:53.886Z,100881.34
2023-04-20T10:33:22.892Z,100877.31
2023-04-20T10:35:54.810Z,100869.53
2023-04-20T10:38:31.103Z,100863.66
2023-04-20T10:41:07.741Z,100863.25
2023-04-20T10:43:36.071Z,100866.41
2023-04-20T10:46:14.465Z,100864.44
2023-04-20T10:48:51.612Z,100850.63
2023-04-20T10:51:20.458Z,100858.28
2023-04-20T10:54:00.980Z,100866.44
2023-04-20T10:56:37.728Z,100853.53
2023-04-20T10:59:09.814Z,100848.03
2023-04-20T11:01:38.001Z,100854.47
2023-04-20T11:04:07.179Z,100849.16
2023-04-20T11:06:35.760Z,100845.91
2023-04-20T11:09:04.071Z,100849.84
2023-04-20T11:11:33.129Z,100847.53
2023-04-20T11:14:09.341Z,100846.72
2023-04-20T11:19:10.498Z,100843.97
2023-04-20T11:21:41.070Z,100845.75
2023-04-20T11:24:21.840Z,100851.75
2023-04-20T11:26:56.224Z,100847.88
2023-04-20T11:29:29.899Z,100850.88
2023-04-20T11:31:58.877Z,100842.25
2023-04-20T11:34:27.210Z,100845.16
2023-04-20T11:36:56.837Z,100846.81
2023-04-20T11:39:25.914Z,100853.84
2023-04-20T11:41:57.112Z,100857.75
2023-04-20T11:44:26.055Z,100855.50
2023-04-20T11:46:58.728Z,100855.41
2023-04-20T11:49:29.212Z,100851.75
2023-04-20T11:51:57.068Z,100843.38
2023-04-20T11:54:26.301Z,100836.22
2023-04-20T11:56:56.346Z,100828.06
2023-04-20T11:59:24.132Z,100825.56
2023-04-20T12:01:52.421Z,100826.75
2023-04-20T12:04:20.456Z,100840.69
2023-04-20T12:06:48.596Z,100843.13
2023-04-20T12:09:17.163Z,100843.06
2023-04-20T12:11:45.082Z,100834.09
2023-04-20T12:14:14.185Z,100832.31
2023-04-20T12:16:42.127Z,100831.09
2023-04-20T12:19:09.982Z,100830.88
2023-04-20T12:21:37.791Z,100834.16
2023-04-20T12:24:06.220Z,100836.31
2023-04-20T12:26:38.320Z,100826.34
2023-04-20T12:29:07.651Z,100831.63
2023-04-20T12:31:37.103Z,100834.22
2023-04-20T12:34:05.317Z,100835.03
2023-04-20T12:36:35.224Z,100839.56
2023-04-20T12:39:04.107Z,100842.22
2023-04-20T12:41:32.990Z,100835.44
2023-04-20T12:44:03.484Z,100833.25
2023-04-20T12:46:33.240Z,100822.31
2023-04-20T12:49:03.001Z,100817.47
2023-04-20T12:51:31.942Z,100817.41
2023-04-20T12:54:00.081Z,100811.16
2023-04-20T12:56:28.127Z,100807.69
2023-04-20T12:58:56.067Z,100801.94
2023-04-20T13:01:24.103Z,100793.22
2023-04-20T13:03:52.564Z,100784.50
2023-04-20T13:06:22.129Z,100792.28
2023-04-20T13:08:50.923Z,100794.69
2023-04-20T13:11:18.869Z,100794.94
2023-04-20T13:13:46.640Z,100789.59
2023-04-20T13:16:15.612Z,100790.38
2023-04-20T13:18:43.433Z,100794.31
2023-04-20T13:21:11.152Z,100790.00
2023-04-20T13:23:40.380Z,100797.22
2023-04-20T13:26:09.051Z,100794.56
2023-04-20T13:28:37.714Z,100786.88
2023-04-20T13:31:05.894Z,100790.75
2023-04-20T13:33:34.319Z,100788.28
2023-04-20T13:36:02.189Z,100778.41
2023-04-20T13:38:30.084Z,100784.19
2023-04-20T13:40:59.289Z,100777.41
2023-04-20T13:43:27.110Z,100780.19
2023-04-20T13:45:55.019Z,100785.75
2023-04-20T13:48:22.965Z,100783.13
2023-04-20T13:50:51.210Z,100782.72
2023-04-20T13:53:18.963Z,100778.84
2023-04-20T13:55:46.767Z,100765.03
2023-04-20T13:58:15.950Z,100769.31
2023-04-20T14:00:43.946Z,100765.69
2023-04-20T14:03:12.416Z,100759.69
2023-04-20T14:05:40.727Z,100759.59
2023-04-20T14:08:08.514Z,100757.50
2023-04-20T14:10:38.182Z,100752.00
2023-04-20T14:13:06.205Z,100761.06
2023-04-20T14:15:35.982Z,100751.09
2023-04-20T14:18:04.169Z,100746.13
2023-04-20T14:20:32.090Z,100746.91
2023-04-20T14:22:59.907Z,100751.72
2023-04-20T14:25:28.149Z,100751.69
2023-04-20T14:27:55.989Z,100744.09
2023-04-20T14:30:23.878Z,100737.69
2023-04-20T14:32:58.208Z,100731.06
2023-04-20T14:35:28.273Z,100735.94
2023-04-20T14:37:56.133Z,100740.69
2023-04-20T14:40:24.215Z,100735.69
2023-04-20T14:42:51.967Z,100734.13
2023-04-20T14:45:21.005Z,100723.22
2023-04-20T14:47:53.145Z,100725.47
2023-04-20T14:50:24.031Z,100738.75
2023-04-20T14:52:53.362Z,100727.97
2023-04-20T14:55:25.951Z,100735.41
2023-04-20T14:57:57.345Z,100745.34
2023-04-20T15:00:28.344Z,100733.81
2023-04-20T15:02:56.878Z,100735.59
2023-04-20T15:05:27.780Z,100724.94
2023-04-20T15:07:57.645Z,100733.91
2023-04-20T15:10:25.889Z,100725.44
2023-04-20T15:12:53.765Z,100732.47
2023-04-20T15:15:21.772Z,100713.13
2023-04-20T15:17:50.128Z,100711.09
2023-04-20T15:20:18.118Z,100723.75
2023-04-20T15:22:47.391Z,100717.78
2023-04-20T15:25:15.189Z,100708.91
2023-04-20T15:27:43.661Z,100715.97
2023-04-20T15:30:12.121Z,100714.38
2023-04-20T15:32:41.422Z,100706.72
2023-04-20T15:35:09.555Z,100697.50
2023-04-20T15:37:38.067Z,100700.72
2023-04-20T15:40:08.792Z,100703.25
2023-04-20T15:42:36.785Z,100700.22
2023-04-20T15:45:06.036Z,100701.03
2023-04-20T15:47:33.904Z,100703.28
2023-04-20T15:50:03.153Z,100702.59
2023-04-20T15:52:32.349Z,100711.69
2023-04-20T15:55:00.297Z,100704.59
2023-04-20T15:57:31.195Z,100707.00
2023-04-20T15:59:59.165Z,100706.28
2023-04-20T16:02:27.065Z,100706.00
2023-04-20T16:04:55.323Z,100702.63
2023-04-20T16:07:23.241Z,100695.59
2023-04-20T16:09:52.298Z,100696.09
2023-04-20T16:12:20.050Z,100705.34
2023-04-20T16:14:49.836Z,100702.31
2023-04-20T16:17:18.551Z,100697.13
2023-04-20T16:19:46.459Z,100700.81
2023-04-20T16:22:25.866Z,100705.50
2023-04-20T16:24:54.053Z,100692.34
2023-04-20T16:27:21.912Z,100710.69
2023-04-20T16:29:49.670Z,100706.78
2023-04-20T16:32:17.616Z,100720.47
2023-04-20T16:34:45.463Z,100703.75
2023-04-20T16:37:13.291Z,100713.38
2023-04-20T16:39:42.513Z,100720.66
2023-04-20T16:42:10.314Z,100722.19
2023-04-20T16:44:40.262Z,100724.72
2023-04-20T16:47:09.482Z,100733.97
2023-04-20T16:49:37.190Z,100726.84
2023-04-20T16:52:05.087Z,100730.06
2023-04-20T16:54:32.871Z,100723.53
2023-04-20T16:57:02.023Z,100737.28
2023-04-20T16:59:29.943Z,100737.88
2023-04-20T17:01:57.915Z,100739.81
2023-04-20T17:04:25.853Z,100729.03
2023-04-20T17:06:53.839Z,100742.00
2023-04-20T17:09:23.161Z,100734.06
2023-04-20T17:11:50.982Z,100743.38
2023-04-20T17:14:20.574Z,100751.84
2023-04-20T17:16:50.750Z,100756.81
2023-04-20T17:19:19.510Z,100761.22
2023-04-20T17:21:47.470Z,100763.22
2023-04-20T17:24:15.465Z,100761.28
2023-04-20T17:26:44.627Z,100764.94
2023-04-20T17:29:12.460Z,100776.16
2023-04-20T17:31:41.667Z,100765.06
2023-04-20T17:34:10.490Z,100762.72
2023-04-20T17:36:38.388Z,100760.03
2023-04-20T17:39:06.721Z,100758.13
2023-04-20T17:41:35.550Z,100747.56
2023-04-20T17:44:03.345Z,100752.66
2023-04-20T17:46:31.981Z,100759.63
2023-04-20T17:49:01.215Z,100760.50
2023-04-20T17:51:28.992Z,100768.13
2023-04-20T17:53:56.826Z,100769.22
2023-04-20T17:56:24.707Z,100767.66
2023-04-20T17:58:52.439Z,100773.16
2023-04-20T18:01:21.013Z,100777.53
2023-04-20T18:03:49.908Z,100776.94
2023-04-20T18:06:19.236Z,100783.78
2023-04-20T18:08:47.228Z,100788.78
2023-04-20T18:11:15.233Z,100789.44
2023-04-20T18:13:44.609Z,100794.44
2023-04-20T18:16:12.618Z,100797.28
2023-04-20T18:18:40.663Z,100800.97
2023-04-20T18:21:09.727Z,100801.13
2023-04-20T18:23:38.830Z,100805.38
2023-04-20T18:26:07.451Z,100800.09
2023-04-20T18:28:35.379Z,100801.00
2023-04-20T18:31:03.323Z,100796.56
2023-04-20T18:33:31.174Z,100800.91
2023-04-20T18:35:58.963Z,100791.50
2023-04-20T18:38:26.728Z,100782.06
2023-04-20T18:40:55.886Z,100796.47
2023-04-20T18:43:23.694Z,100784.97
2023-04-20T18:45:52.843Z,100784.25
2023-04-20T18:48:20.688Z,100780.16
2023-04-20T18:50:48.474Z,100776.03
2023-04-20T18:53:16.461Z,100767.56
2023-04-20T18:55:44.291Z,100781.56
2023-04-20T18:58:13.712Z,100785.13
2023-04-20T19:00:41.532Z,100778.97
2023-04-20T19:03:09.516Z,100774.91
2023-04-20T19:05:37.894Z,100778.41
2023-04-20T19:08:05.890Z,100775.88
2023-04-20T19:10:33.863Z,100770.50
2023-04-20T19:13:01.726Z,100768.63
2023-04-20T19:15:31.376Z,100775.00
2023-04-20T19:17:59.235Z,100776.66
2023-04-20T19:20:27.124Z,100771.56
2023-04-20T19:22:55.007Z,100778.50
2023-04-20T19:25:22.837Z,100766.66
2023-04-20T19:27:50.699Z,100780.88
2023-04-20T19:30:18.593Z,100771.28
2023-04-20T19:32:47.986Z,100767.84
2023-04-20T19:35:15.864Z,100771.75
2023-04-20T19:37:43.719Z,100763.72
2023-04-20T19:40:12.086Z,100763.63
2023-04-20T19:42:40.595Z,100763.16
2023-04-20T19:45:09.358Z,100762.38
2023-04-20T19:47:37.173Z,100763.44
2023-04-20T19:50:07.906Z,100766.09
2023-04-20T19:52:35.983Z,100752.56
2023-04-20T19:55:06.348Z,100749.38
2023-04-20T19:57:34.259Z,100753.56
2023-04-20T20:00:02.160Z,100756.09
2023-04-20T20:02:41.387Z,100749.28
2023-04-20T20:05:11.005Z,100754.53
2023-04-20T20:07:38.982Z,100751.03
2023-04-20T20:10:07.621Z,100761.59
2023-04-20T20:12:35.554Z,100758.25
2023-04-20T20:15:04.574Z,100760.06
2023-04-20T20:17:32.541Z,100756.81
2023-04-20T20:20:01.813Z,100757.00
2023-04-20T20:22:30.917Z,100763.44
2023-04-20T20:24:58.949Z,100762.72
2023-04-20T20:27:26.933Z,100756.47
2023-04-20T20:29:54.830Z,100749.53
2023-04-20T20:32:22.766Z,100749.97
2023-04-20T20:34:52.529Z,100753.69
2023-04-20T20:37:21.281Z,100758.47
2023-04-20T20:39:50.543Z,100755.44
2023-04-20T20:42:18.241Z,100757.31
2023-04-20T20:44:46.032Z,100755.34
2023-04-20T20:47:13.788Z,100751.09
2023-04-20T20:49:41.541Z,100753.59
2023-04-20T20:52:09.534Z,100758.59
2023-04-20T20:54:37.246Z,100751.63
2023-04-20T20:57:06.378Z,100737.88
2023-04-20T20:59:34.331Z,100733.94
2023-04-20T21:02:03.377Z,100739.00
2023-04-20T21:04:31.916Z,100734.06
2023-04-20T21:06:59.690Z,100733.25
2023-04-20T21:09:27.644Z,100717.94
2023-04-20T21:12:00.034Z,100716.22
2023-04-20T21:14:29.286Z,100722.13
2023-04-20T21:16:57.461Z,100720.56
2023-04-20T21:19:25.514Z,100718.84
2023-04-20T21:21:53.253Z,100716.66
2023-04-20T21:24:21.129Z,100714.69
2023-04-20T21:26:49.089Z,100716.16
2023-04-20T21:29:17.043Z,100718.22
2023-04-20T21:31:46.704Z,100714.41
2023-04-20T21:34:14.597Z,100707.56
2023-04-20T21:36:42.307Z,100721.38
2023-04-20T21:39:10.217Z,100726.50
2023-04-20T21:41:38.080Z,100717.09
2023-04-20T21:44:05.919Z,100710.97
2023-04-20T21:46:33.855Z,100716.38
2023-04-20T21:49:03.170Z,100704.78
2023-04-20T21:51:31.815Z,100707.88
2023-04-20T21:53:59.670Z,100695.97
2023-04-20T21:56:27.444Z,100697.59
2023-04-20T21:58:55.382Z,100690.19
2023-04-20T22:01:23.195Z,100688.72
2023-04-20T22:03:52.032Z,100692.66
2023-04-20T22:06:21.214Z,100686.97
2023-04-20T22:08:49.055Z,100685.34
2023-04-20T22:11:16.975Z,100681.19
2023-04-20T22:13:45.209Z,100662.53
2023-04-20T22:16:13.035Z,100657.34
2023-04-20T22:18:42.164Z,100650.59
2023-04-20T22:21:09.898Z,100647.06
2023-04-20T22:23:39.108Z,100650.06
2023-04-20T22:26:06.971Z,100656.97
2023-04-20T22:28:34.867Z,100647.41
2023-04-20T22:31:03.344Z,100645.75
2023-04-20T22:33:31.394Z,100643.41
2023-04-20T22:35:59.178Z,100637.50
2023-04-20T22:38:27.233Z,100632.34
2023-04-20T22:40:56.507Z,100625.66
2023-04-20T22:43:24.547Z,100629.06
2023-04-20T22:45:53.648Z,100632.81
2023-04-20T22:48:21.702Z,100625.81
2023-04-20T22:50:49.515Z,100621.00
2023-04-20T22:53:17.283Z,100615.69
2023-04-20T22:55:45.930Z,100612.31
2023-04-20T22:58:15.121Z,100609.00
2023-04-20T23:00:43.442Z,100608.25
2023-04-20T23:03:11.370Z,100606.31
2023-04-20T23:05:39.464Z,100605.25
2023-04-20T23:08:07.357Z,100593.22
2023-04-20T23:10:35.384Z,100598.31
2023-04-20T23:13:04.945Z,100594.56
2023-04-20T23:15:34.223Z,100595.28
2023-04-20T23:18:02.265Z,100591.59
2023-04-20T23:20:30.110Z,100584.84
2023-04-20T23:22:57.949Z,100580.44
2023-04-20T23:25:26.247Z,100571.56
2023-04-20T23:27:54.044Z,100565.78
2023-04-20T23:30:22.229Z,100556.50
2023-04-20T23:32:51.294Z,100561.63
2023-04-20T23:35:19.381Z,100548.84
2023-04-20T23:37:47.189Z,100546.25
2023-04-20T23:40:14.977Z,100536.69
2023-04-20T23:42:42.752Z,100535.47
2023-04-20T23:45:11.960Z,100540.66
2023-04-20T23:47:40.033Z,100530.44
2023-04-20T23:50:10.193Z,100533.25
2023-04-20T23:52:38.451Z,100537.78
2023-04-20T23:55:07.408Z,100531.72
2023-04-20T23:57:35.260Z,100534.13
